ANA331 RJOA-RJFU

Flight info

Callsign ANA331
Flight time 0h 37m
Altitude 30000
Route MARCO Y28 ACTIE OHGIE
Aircraft A320/M-SDE3FGHIRWY/LB1

Departure

Time 2026-05-04 15:36
Airport Hiroshima Airport (RJOA)

Arrival

Time 2026-05-04 16:13
Airport Nagasaki Airport (RJFU)
Time Latitude Longitude Altitude Speed Heading
2026-05-04 15:07 34.43905 132.91852 1079 ft 0 kts
2026-05-04 15:24 34.43898 132.91851 1078 ft 4 kts
2026-05-04 15:25 34.43870 132.91851 1077 ft 4 kts
2026-05-04 15:25 34.43844 132.91849 1077 ft 4 kts
2026-05-04 15:25 34.43817 132.91847 1076 ft 4 kts
2026-05-04 15:26 34.43773 132.91824 1077 ft 3 kts 84°
2026-05-04 15:26 34.43773 132.91821 1077 ft 1 kts 90°
2026-05-04 15:31 34.43773 132.91831 1076 ft 3 kts 90°
2026-05-04 15:32 34.43773 132.91989 1075 ft 8 kts 90°
2026-05-04 15:32 34.43767 132.92108 1078 ft 10 kts 89°
2026-05-04 15:33 34.43771 132.92498 1080 ft 29 kts 90°
2026-05-04 15:34 34.43773 132.93166 1078 ft 24 kts 89°
2026-05-04 15:34 34.43774 132.93292 1077 ft 25 kts 89°
2026-05-04 15:34 34.43729 132.93553 1073 ft 21 kts 160°
2026-05-04 15:35 34.43608 132.93396 1078 ft 24 kts 270°
2026-05-04 15:35 34.43610 132.92888 1079 ft 93 kts 269°
2026-05-04 15:35 34.43612 132.91884 1148 ft 137 kts 273°
2026-05-04 15:36 34.43490 132.89608 2616 ft 141 kts 270°
2026-05-04 15:36 34.43370 132.88406 3202 ft 150 kts 270°
2026-05-04 15:36 34.43248 132.87054 3579 ft 173 kts 270°
2026-05-04 15:37 34.43110 132.85509 3931 ft 197 kts 270°
2026-05-04 15:37 34.42952 132.83752 4394 ft 222 kts 269°
2026-05-04 15:37 34.42763 132.81812 5078 ft 239 kts 266°
2026-05-04 15:37 34.42140 132.79878 6029 ft 255 kts 248°
2026-05-04 15:38 34.41141 132.78074 6963 ft 261 kts 240°
2026-05-04 15:38 34.40019 132.76322 7866 ft 265 kts 239°
2026-05-04 15:38 34.38873 132.74560 8815 ft 267 kts 239°
2026-05-04 15:38 34.37732 132.72761 9771 ft 270 kts 239°
2026-05-04 15:39 34.36610 132.70923 10415 ft 282 kts 240°
2026-05-04 15:39 34.35422 132.68905 10709 ft 306 kts 240°
2026-05-04 15:39 34.32883 132.64498 11904 ft 326 kts 240°
2026-05-04 15:40 34.31569 132.62212 12647 ft 332 kts 241°
2026-05-04 15:40 34.30255 132.59924 13394 ft 337 kts 241°
2026-05-04 15:40 34.28909 132.57572 14075 ft 341 kts 242°
2026-05-04 15:40 34.27546 132.55194 14802 ft 343 kts 241°
2026-05-04 15:41 34.26178 132.52813 15562 ft 345 kts 242°
2026-05-04 15:41 34.24826 132.50465 16302 ft 345 kts 241°
2026-05-04 15:41 34.23454 132.48083 17057 ft 346 kts 241°
2026-05-04 15:41 34.22132 132.45653 17798 ft 343 kts 246°
2026-05-04 15:42 34.20978 132.43124 18496 ft 343 kts 246°
2026-05-04 15:42 34.19827 132.40594 19133 ft 344 kts 246°
2026-05-04 15:42 34.18675 132.38064 19748 ft 344 kts 246°
2026-05-04 15:42 34.17520 132.35537 20401 ft 344 kts 246°
2026-05-04 15:43 34.16362 132.33013 21041 ft 344 kts 246°
2026-05-04 15:43 34.15593 132.31340 21464 ft 344 kts 245°
2026-05-04 15:43 34.14427 132.28804 22084 ft 344 kts 245°
2026-05-04 15:43 34.12888 132.25456 22887 ft 344 kts 245°
2026-05-04 15:44 34.11725 132.22924 23483 ft 345 kts 245°
2026-05-04 15:44 34.10567 132.20410 23965 ft 345 kts 245°
2026-05-04 15:44 34.09775 132.18697 24253 ft 347 kts 244°
2026-05-04 15:44 34.08601 132.16150 24566 ft 350 kts 245°
2026-05-04 15:45 34.07460 132.12550 25343 ft 344 kts 255°
2026-05-04 15:45 34.07044 132.10660 25699 ft 343 kts 255°
2026-05-04 15:45 34.06434 132.07898 26160 ft 343 kts 255°
2026-05-04 15:45 34.05815 132.05109 26611 ft 344 kts 255°
2026-05-04 15:46 34.05192 132.02305 27024 ft 346 kts 254°
2026-05-04 15:46 34.04568 131.99510 27510 ft 346 kts 254°
2026-05-04 15:46 34.03944 131.96709 27997 ft 346 kts 254°
2026-05-04 15:46 34.03324 131.93927 28424 ft 347 kts 253°
2026-05-04 15:47 34.02696 131.91112 28821 ft 348 kts 253°
2026-05-04 15:47 34.02064 131.88281 29210 ft 349 kts 253°
2026-05-04 15:47 34.01434 131.85455 29562 ft 350 kts 253°
2026-05-04 15:47 34.00799 131.82618 29924 ft 350 kts 253°
2026-05-04 15:48 34.00171 131.79828 29986 ft 344 kts 253°
2026-05-04 15:48 33.98346 131.71726 29999 ft 331 kts 252°
2026-05-04 15:49 33.97137 131.66362 30002 ft 331 kts 252°
2026-05-04 15:49 33.95919 131.60991 30002 ft 331 kts 252°
2026-05-04 15:50 33.94702 131.55637 30011 ft 331 kts 252°
2026-05-04 15:50 33.93480 131.50278 30008 ft 332 kts 252°
2026-05-04 15:51 33.92267 131.44946 30005 ft 332 kts 252°
2026-05-04 15:51 33.91048 131.39585 30027 ft 331 kts 252°
2026-05-04 15:52 33.89833 131.34246 30057 ft 331 kts 252°
2026-05-04 15:52 33.88607 131.28888 30022 ft 333 kts 252°
2026-05-04 15:53 33.87381 131.23544 29980 ft 333 kts 253°
2026-05-04 15:53 33.86143 131.18154 29995 ft 333 kts 252°
2026-05-04 15:54 33.84902 131.12789 30020 ft 333 kts 252°
2026-05-04 15:54 33.83668 131.07433 30014 ft 334 kts 252°
2026-05-04 15:55 33.82423 131.02032 30008 ft 334 kts 252°
2026-05-04 15:55 33.81175 130.96674 30007 ft 335 kts 252°
2026-05-04 15:56 33.79911 130.91259 29996 ft 335 kts 253°
2026-05-04 15:56 33.78654 130.85880 30002 ft 336 kts 252°
2026-05-04 15:57 33.78021 130.83164 29859 ft 339 kts 252°
2026-05-04 15:57 33.77383 130.80416 29577 ft 340 kts 252°
2026-05-04 15:57 33.76746 130.77668 29308 ft 342 kts 253°
2026-05-04 15:57 33.76107 130.74917 28999 ft 338 kts 253°
2026-05-04 15:58 33.75483 130.72253 28558 ft 331 kts 253°
2026-05-04 15:58 33.74863 130.69617 28099 ft 325 kts 253°
2026-05-04 15:58 33.74254 130.67030 27655 ft 319 kts 253°
2026-05-04 15:58 33.73654 130.64477 27215 ft 313 kts 254°
2026-05-04 15:59 33.73065 130.61972 26769 ft 310 kts 254°
2026-05-04 15:59 33.72478 130.59488 26361 ft 308 kts 255°
2026-05-04 15:59 33.71894 130.57010 25949 ft 308 kts 256°
2026-05-04 15:59 33.71312 130.54534 25520 ft 307 kts 255°
2026-05-04 16:00 33.70700 130.52071 25118 ft 307 kts 251°
2026-05-04 16:00 33.69767 130.49786 24715 ft 311 kts 242°
2026-05-04 16:00 33.68424 130.47723 24254 ft 317 kts 232°
2026-05-04 16:00 33.66704 130.45989 23771 ft 329 kts 223°
2026-05-04 16:01 33.64819 130.44405 23215 ft 330 kts 223°
2026-05-04 16:01 33.62936 130.42824 22724 ft 330 kts 223°
2026-05-04 16:01 33.61056 130.41244 22257 ft 330 kts 222°
2026-05-04 16:01 33.59177 130.39662 21786 ft 329 kts 222°
2026-05-04 16:02 33.57303 130.38087 21332 ft 329 kts 222°
2026-05-04 16:02 33.55429 130.36515 20872 ft 328 kts 222°
2026-05-04 16:02 33.51712 130.33397 19933 ft 328 kts 222°
2026-05-04 16:03 33.49845 130.31827 19457 ft 327 kts 222°
2026-05-04 16:03 33.47976 130.30257 18981 ft 327 kts 222°
2026-05-04 16:03 33.46108 130.28689 18495 ft 327 kts 222°
2026-05-04 16:03 33.44241 130.27122 17985 ft 328 kts 221°
2026-05-04 16:04 33.42370 130.25554 17493 ft 328 kts 221°
2026-05-04 16:04 33.38648 130.22445 16553 ft 328 kts 221°
2026-05-04 16:04 33.36773 130.20875 16081 ft 329 kts 221°
2026-05-04 16:05 33.34872 130.19341 15608 ft 333 kts 216°
2026-05-04 16:05 33.32726 130.18203 15138 ft 341 kts 203°
2026-05-04 16:05 33.20524 130.17031 12585 ft 352 kts 188°
2026-05-04 16:06 33.10810 130.16403 10628 ft 347 kts 187°
2026-05-04 16:06 32.95784 130.15460 8763 ft 308 kts 187°
2026-05-04 16:07 32.92959 130.15279 8247 ft 305 kts 187°
2026-05-04 16:07 32.86767 130.14888 7057 ft 284 kts 187°
2026-05-04 16:08 32.80639 130.14022 5047 ft 267 kts 209°
2026-05-04 16:08 32.77359 130.09818 3859 ft 226 kts 265°
2026-05-04 16:09 32.77808 130.06497 3411 ft 191 kts 302°
2026-05-04 16:09 32.80447 130.03332 2688 ft 166 kts 318°
2026-05-04 16:10 32.83819 129.99746 1784 ft 132 kts 316°
2026-05-04 16:11 32.87197 129.96142 976 ft 129 kts 316°
2026-05-04 16:11 32.87869 129.95437 779 ft 130 kts 315°
2026-05-04 16:12 32.89863 129.93296 281 ft 128 kts 319°
2026-05-04 16:12 32.91690 129.91350 17 ft 76 kts 318°
2026-05-04 16:13 32.92019 129.91172 15 ft 19 kts 50°
2026-05-04 16:13 32.91915 129.91381 19 ft 15 kts 139°
2026-05-04 16:14 32.91779 129.91531 18 ft 12 kts 136°
2026-05-04 16:14 32.91648 129.91674 17 ft 13 kts 138°
2026-05-04 16:15 32.91467 129.91863 18 ft 10 kts 138°
2026-05-04 16:16 32.91374 129.91964 17 ft 9 kts 137°
2026-05-04 16:16 32.91380 129.92080 17 ft 4 kts 49°
2026-05-04 16:17 32.91419 129.92130 18 ft 7 kts 47°
2026-05-04 16:18 32.91427 129.92141 18 ft 0 kts 47°